Time;durP1;ratioP1;P1;durP2;ratioP2;P2;SDS_P1;SDS_P2;PMS_P1;PMS_P2;Temp;Humidity;BMP_temperature;BMP_pressure;BME280_temperature;BME280_humidity;BME280_pressure;Samples;Min_cycle;Max_cycle;Signal;HPM_P1;HPM_P2
2021/06/21 00:00:51;;;;;;;6.53;4.50;;;;;;;19.26;83.80;100526.28;5252395;28;20021;-67
2021/06/21 00:03:23;;;;;;;7.40;4.23;;;;;;;19.28;83.57;100518.13;5253852;28;20087;-67
2021/06/21 00:05:54;;;;;;;5.10;3.83;;;;;;;19.25;83.93;100524.66;5252753;28;20414;-67
2021/06/21 00:08:25;;;;;;;5.70;4.00;;;;;;;19.26;84.32;100528.13;5250022;28;20068;-67
2021/06/21 00:10:57;;;;;;;6.43;4.60;;;;;;;19.29;84.50;100522.44;5252758;28;20029;-67
2021/06/21 00:13:28;;;;;;;6.17;4.03;;;;;;;19.19;85.48;100509.50;5253319;28;20045;-67
2021/06/21 00:15:59;;;;;;;7.50;4.30;;;;;;;19.25;87.87;100510.56;5254298;28;20112;-67
2021/06/21 00:18:31;;;;;;;7.00;4.60;;;;;;;19.15;88.24;100518.88;5251965;28;20190;-67
2021/06/21 00:21:03;;;;;;;6.27;4.83;;;;;;;19.15;90.87;100510.91;5252868;28;20182;-67
2021/06/21 00:23:34;;;;;;;7.20;4.72;;;;;;;19.10;90.73;100518.63;5253220;28;20425;-66
2021/06/21 00:26:06;;;;;;;9.67;5.10;;;;;;;18.97;92.36;100516.69;5252156;28;20067;-66
2021/06/21 00:28:37;;;;;;;7.30;5.17;;;;;;;18.85;92.75;100513.75;5252479;28;20438;-66
2021/06/21 00:31:09;;;;;;;11.27;5.23;;;;;;;18.83;92.31;100514.97;5253778;28;20052;-66
2021/06/21 00:33:40;;;;;;;11.43;5.40;;;;;;;18.73;94.77;100511.81;5252317;28;20516;-66
2021/06/21 00:36:11;;;;;;;8.00;5.00;;;;;;;18.69;95.38;100506.03;5251353;28;20032;-66
2021/06/21 00:38:43;;;;;;;7.57;5.23;;;;;;;18.68;95.15;100507.88;5253052;28;20029;-66
2021/06/21 00:41:14;;;;;;;8.37;5.33;;;;;;;18.63;95.09;100507.59;5252628;28;20027;-66
2021/06/21 00:43:45;;;;;;;7.17;5.20;;;;;;;18.68;96.83;100507.06;5253299;28;20033;-66
2021/06/21 00:46:16;;;;;;;7.50;5.57;;;;;;;18.58;96.91;100499.41;5252599;28;20511;-66
2021/06/21 00:48:48;;;;;;;7.67;5.37;;;;;;;18.52;97.42;100500.16;5254250;28;20043;-66
2021/06/21 00:51:19;;;;;;;9.40;6.87;;;;;;;18.47;97.93;100505.22;5253839;28;20078;-66
2021/06/21 00:53:52;;;;;;;7.90;6.00;;;;;;;18.44;98.25;100489.69;5254939;28;20121;-66
2021/06/21 00:56:24;;;;;;;9.48;6.53;;;;;;;18.33;99.09;100498.13;5255783;28;20072;-66
2021/06/21 00:58:59;;;;;;;8.47;6.33;;;;;;;18.35;99.42;100496.94;5255976;28;20114;-66
2021/06/21 01:01:31;;;;;;;10.20;6.97;;;;;;;18.32;100.00;100507.13;5254533;28;20479;-66
2021/06/21 01:04:02;;;;;;;8.27;6.87;;;;;;;18.24;99.89;100500.09;5256643;28;20027;-66
2021/06/21 01:06:34;;;;;;;8.87;6.90;;;;;;;18.18;99.62;100509.66;5256382;28;20025;-67
2021/06/21 01:09:05;;;;;;;10.77;7.50;;;;;;;18.16;100.00;100493.09;5255592;28;20040;-66
2021/06/21 01:11:53;;;;;;;9.70;7.20;;;;;;;18.16;100.00;100506.34;5255272;28;20039;-66
2021/06/21 01:14:31;;;;;;;10.00;7.20;;;;;;;18.14;100.00;100505.69;5255639;28;20032;-66
2021/06/21 01:17:34;;;;;;;10.80;7.82;;;;;;;18.20;100.00;100498.84;5256179;28;20071;-66
2021/06/21 01:20:23;;;;;;;10.98;8.98;;;;;;;18.09;100.00;100496.69;5255605;28;20028;-66
2021/06/21 01:23:43;;;;;;;10.95;8.07;;;;;;;18.11;100.00;100492.03;5256816;28;20032;-66
2021/06/21 01:26:22;;;;;;;10.35;7.85;;;;;;;18.05;100.00;100504.19;5217042;28;20037;-66
2021/06/21 01:29:31;;;;;;;11.00;8.70;;;;;;;18.10;100.00;100507.09;5256289;28;20035;-66
2021/06/21 01:32:06;;;;;;;12.60;8.73;;;;;;;17.91;100.00;100505.03;5256247;28;20021;-66
2021/06/21 01:34:44;;;;;;;10.13;9.05;;;;;;;17.83;100.00;100510.44;5255838;28;20094;-66
2021/06/21 01:37:18;;;;;;;9.35;8.40;;;;;;;17.78;100.00;100523.44;5253975;28;20100;-66
2021/06/21 01:39:53;;;;;;;10.73;8.43;;;;;;;17.68;100.00;100524.50;5255443;28;20033;-66
2021/06/21 01:42:26;;;;;;;10.90;8.93;;;;;;;17.63;100.00;100531.38;5256430;28;20021;-66
2021/06/21 01:45:04;;;;;;;12.20;8.88;;;;;;;17.64;100.00;100522.41;5254716;28;20489;-66
2021/06/21 01:47:38;;;;;;;9.82;8.32;;;;;;;17.51;100.00;100526.53;5255945;28;20675;-66
2021/06/21 01:50:10;;;;;;;10.80;8.77;;;;;;;17.52;100.00;100522.88;5253458;28;20036;-66
2021/06/21 01:52:43;;;;;;;10.03;9.03;;;;;;;17.42;100.00;100516.22;5252977;28;20037;-65
2021/06/21 01:55:20;;;;;;;9.57;8.65;;;;;;;17.33;100.00;100512.03;5255476;28;20025;-65
2021/06/21 01:57:52;;;;;;;9.32;8.38;;;;;;;17.23;100.00;100515.75;5248708;28;20036;-65
2021/06/21 02:00:24;;;;;;;10.32;9.25;;;;;;;17.27;100.00;100517.03;5250719;28;20482;-66
2021/06/21 02:02:58;;;;;;;11.50;8.50;;;;;;;17.20;100.00;100508.19;5248229;28;20363;-65
2021/06/21 02:05:31;;;;;;;11.02;8.68;;;;;;;17.13;100.00;100498.50;5252074;28;20126;-65
2021/06/21 02:08:04;;;;;;;11.25;10.05;;;;;;;17.13;100.00;100501.97;5253373;28;20131;-65
2021/06/21 02:10:38;;;;;;;10.25;9.35;;;;;;;16.96;100.00;100505.75;5254233;28;20033;-65
2021/06/21 02:13:11;;;;;;;12.35;9.23;;;;;;;16.89;100.00;100508.28;5254300;28;20028;-66
2021/06/21 02:15:44;;;;;;;;;;;;;;;17.13;100.00;100503.78;5256582;28;20433;-66
2021/06/21 02:18:19;;;;;;;10.02;9.05;;;;;;;16.82;100.00;100495.97;5254799;28;20058;-66
2021/06/21 02:20:53;;;;;;;9.88;8.85;;;;;;;16.67;100.00;100490.63;5253969;28;20065;-66
2021/06/21 02:23:24;;;;;;;10.27;9.35;;;;;;;16.64;100.00;100498.91;5253857;28;20063;-65
2021/06/21 02:25:57;;;;;;;11.52;9.82;;;;;;;16.62;100.00;100498.25;5255177;28;20116;-65
2021/06/21 02:28:29;;;;;;;10.02;8.50;;;;;;;16.61;100.00;100496.63;5254341;28;20045;-66
2021/06/21 02:31:04;;;;;;;10.48;9.35;;;;;;;16.59;100.00;100509.19;5254327;28;20024;-65
2021/06/21 02:33:35;;;;;;;11.07;9.98;;;;;;;16.49;100.00;100501.50;5250768;28;20087;-66
2021/06/21 02:36:08;;;;;;;13.77;10.65;;;;;;;16.46;100.00;100491.28;5253302;28;20037;-66
2021/06/21 02:38:39;;;;;;;10.02;9.02;;;;;;;16.43;100.00;100494.28;5255776;28;20470;-66
2021/06/21 02:41:11;;;;;;;10.15;9.13;;;;;;;16.37;100.00;100498.47;5254082;28;20040;-65
2021/06/21 02:43:42;;;;;;;10.27;9.38;;;;;;;16.32;100.00;100492.84;5254151;28;20508;-65
2021/06/21 02:46:14;;;;;;;11.27;9.82;;;;;;;16.28;100.00;100502.97;5255790;28;20028;-66
2021/06/21 02:48:45;;;;;;;11.57;9.13;;;;;;;16.29;100.00;100495.88;5254089;28;20581;-66
2021/06/21 02:51:23;;;;;;;11.05;9.95;;;;;;;16.15;100.00;100493.97;5253908;28;20394;-66
2021/06/21 02:54:05;;;;;;;9.63;8.65;;;;;;;16.07;100.00;100489.56;5254670;28;20082;-65
2021/06/21 02:57:02;;;;;;;10.02;8.98;;;;;;;15.98;100.00;100495.88;5255465;28;20029;-65
2021/06/21 02:59:38;;;;;;;10.65;9.55;;;;;;;15.89;100.00;100484.53;5252927;28;20060;-66
2021/06/21 03:02:11;;;;;;;13.07;9.73;;;;;;;15.87;100.00;100493.63;5253197;28;20024;-65
2021/06/21 03:04:45;;;;;;;9.80;8.80;;;;;;;15.89;100.00;100502.22;5248482;28;20089;-65
2021/06/21 03:07:18;;;;;;;10.52;9.52;;;;;;;15.88;100.00;100503.22;5254493;28;20017;-65
2021/06/21 03:09:51;;;;;;;10.38;9.02;;;;;;;15.78;100.00;100496.31;5251085;28;20109;-65
2021/06/21 03:12:26;;;;;;;10.20;9.23;;;;;;;15.79;100.00;100503.25;5253703;28;20094;-65
2021/06/21 03:14:57;;;;;;;11.90;8.65;;;;;;;15.72;100.00;100499.66;5253151;28;20104;-65
2021/06/21 03:17:33;;;;;;;9.98;8.70;;;;;;;15.69;100.00;100513.22;5252903;28;20375;-65
2021/06/21 03:20:05;;;;;;;9.50;8.45;;;;;;;15.70;100.00;100512.22;5250740;28;20021;-65
2021/06/21 03:22:38;;;;;;;9.70;8.70;;;;;;;15.65;100.00;100511.91;5254584;28;20421;-65
2021/06/21 03:25:09;;;;;;;;;;;;;;;15.91;100.00;100505.50;5254848;28;20029;-65
2021/06/21 03:27:41;;;;;;;8.25;7.18;;;;;;;15.66;100.00;100502.16;5255028;28;19962;-65
2021/06/21 03:30:14;;;;;;;8.63;7.65;;;;;;;15.63;100.00;100491.91;5252622;28;20033;-65
2021/06/21 03:32:48;;;;;;;8.85;7.25;;;;;;;15.50;100.00;100493.28;5252553;28;20155;-65
2021/06/21 03:35:21;;;;;;;7.63;6.82;;;;;;;15.43;100.00;100491.50;5253102;28;20024;-65
2021/06/21 03:37:52;;;;;;;;;;;;;;;15.66;100.00;100484.50;5252337;28;20029;-65
2021/06/21 03:40:23;;;;;;;6.90;6.22;;;;;;;15.38;100.00;100483.25;5254459;28;19978;-65
2021/06/21 03:42:54;;;;;;;7.55;5.63;;;;;;;15.39;100.00;100482.28;5254159;28;20029;-66
2021/06/21 03:45:26;;;;;;;7.63;6.15;;;;;;;15.33;100.00;100481.13;5251768;28;20444;-65
2021/06/21 03:47:57;;;;;;;7.30;6.10;;;;;;;15.33;100.00;100476.66;5250244;28;20033;-65
2021/06/21 03:50:28;;;;;;;6.50;5.90;;;;;;;15.29;100.00;100478.00;5253785;28;20107;-65
2021/06/21 03:53:00;;;;;;;6.85;5.63;;;;;;;15.23;100.00;100476.06;5253624;28;20066;-65
2021/06/21 03:55:32;;;;;;;6.53;5.88;;;;;;;15.25;100.00;100494.34;5252197;28;20115;-66
2021/06/21 03:58:06;;;;;;;6.72;6.03;;;;;;;15.27;100.00;100493.19;5252416;28;20021;-65
2021/06/21 04:00:38;;;;;;;6.25;5.38;;;;;;;15.17;100.00;100486.44;5248349;28;20056;-66
2021/06/21 04:03:09;;;;;;;6.07;5.50;;;;;;;15.21;100.00;100487.75;5247094;28;20490;-65
2021/06/21 04:05:42;;;;;;;6.53;5.47;;;;;;;15.21;100.00;100490.41;5249134;28;20064;-66
2021/06/21 04:08:16;;;;;;;5.30;4.78;;;;;;;15.16;100.00;100490.91;5250741;28;20056;-67
2021/06/21 04:10:49;;;;;;;5.05;4.55;;;;;;;15.09;100.00;100496.03;5253349;28;20036;-66
2021/06/21 04:13:21;;;;;;;6.22;4.97;;;;;;;15.06;100.00;100493.72;5252181;28;20544;-66
2021/06/21 04:15:52;;;;;;;5.38;4.88;;;;;;;15.12;100.00;100499.34;5253463;28;20115;-66
2021/06/21 04:18:24;;;;;;;5.63;4.60;;;;;;;15.04;100.00;100500.19;5253153;28;20052;-66
2021/06/21 04:20:55;;;;;;;6.47;4.97;;;;;;;15.06;100.00;100503.44;5253127;28;20094;-66
2021/06/21 04:23:27;;;;;;;5.80;5.20;;;;;;;15.05;100.00;100501.81;5258900;28;20108;-66
2021/06/21 04:25:58;;;;;;;5.15;4.65;;;;;;;14.96;100.00;100503.63;5257409;28;20039;-66
2021/06/21 04:28:29;;;;;;;8.43;4.75;;;;;;;14.97;100.00;100502.66;5254994;28;20082;-66
2021/06/21 04:31:01;;;;;;;6.15;4.68;;;;;;;14.91;100.00;100503.31;5257562;28;20017;-65
2021/06/21 04:33:32;;;;;;;4.68;4.28;;;;;;;14.92;100.00;100506.75;5257776;28;20067;-66
2021/06/21 04:36:05;;;;;;;5.03;4.20;;;;;;;14.98;100.00;100503.47;5253889;28;20035;-63
2021/06/21 04:38:37;;;;;;;5.97;4.63;;;;;;;14.94;100.00;100513.53;5256247;28;20068;-64
2021/06/21 04:41:08;;;;;;;4.63;4.05;;;;;;;14.91;100.00;100518.31;5256767;28;20024;-64
2021/06/21 04:43:39;;;;;;;4.28;3.72;;;;;;;14.83;100.00;100512.06;5257895;28;20033;-65
2021/06/21 04:46:11;;;;;;;4.53;3.85;;;;;;;14.85;100.00;100519.81;5255596;28;20029;-64
2021/06/21 04:48:43;;;;;;;5.15;3.50;;;;;;;14.74;100.00;100520.97;5256691;28;20398;-64
2021/06/21 04:51:16;;;;;;;3.60;3.07;;;;;;;14.69;100.00;100520.63;5257048;28;20040;-64
2021/06/21 04:53:48;;;;;;;3.78;3.00;;;;;;;14.61;100.00;100515.34;5255671;28;20284;-64
2021/06/21 04:56:19;;;;;;;5.77;3.00;;;;;;;14.58;100.00;100507.75;5256708;28;20029;-64
2021/06/21 04:58:51;;;;;;;3.72;2.75;;;;;;;14.63;100.00;100499.38;5255680;28;20064;-64
2021/06/21 05:01:22;;;;;;;4.43;2.72;;;;;;;14.57;100.00;100519.31;5256666;28;20033;-65
2021/06/21 05:03:53;;;;;;;4.07;3.08;;;;;;;14.49;100.00;100511.34;5255508;28;20025;-64
2021/06/21 05:06:24;;;;;;;3.90;2.60;;;;;;;14.51;100.00;100514.72;5254667;28;20179;-64
2021/06/21 05:08:56;;;;;;;3.85;3.03;;;;;;;14.55;100.00;100516.03;5256066;28;20055;-64
2021/06/21 05:11:28;;;;;;;4.28;3.33;;;;;;;14.54;100.00;100523.09;5253679;28;20028;-65
2021/06/21 05:14:00;;;;;;;4.60;2.92;;;;;;;14.55;100.00;100518.66;5254926;28;20021;-65
2021/06/21 05:16:31;;;;;;;3.92;3.30;;;;;;;14.59;100.00;100520.78;5254696;28;20025;-64
2021/06/21 05:19:03;;;;;;;4.13;3.50;;;;;;;14.61;100.00;100528.53;5253339;28;20036;-65
2021/06/21 05:21:36;;;;;;;5.35;3.65;;;;;;;14.72;100.00;100525.56;5253206;28;20044;-65
2021/06/21 05:24:08;;;;;;;3.75;3.20;;;;;;;14.67;100.00;100521.78;5254366;28;20499;-65
2021/06/21 05:26:39;;;;;;;3.45;3.10;;;;;;;14.65;100.00;100531.66;5255781;28;20025;-65
2021/06/21 05:29:10;;;;;;;4.30;2.90;;;;;;;14.69;100.00;100530.34;5253943;28;20036;-64
2021/06/21 05:31:42;;;;;;;3.30;3.00;;;;;;;14.64;100.00;100541.38;5251631;28;20036;-64
2021/06/21 05:34:13;;;;;;;3.85;3.17;;;;;;;14.66;100.00;100535.94;5256345;28;20032;-66
2021/06/21 05:36:45;;;;;;;4.30;3.30;;;;;;;14.65;100.00;100532.47;5259619;28;20029;-64
2021/06/21 05:39:16;;;;;;;4.72;3.47;;;;;;;14.64;100.00;100533.47;5257771;28;20074;-65
2021/06/21 05:41:48;;;;;;;3.70;2.85;;;;;;;14.61;100.00;100541.72;5255721;28;20092;-65
2021/06/21 05:44:20;;;;;;;3.90;3.28;;;;;;;14.67;100.00;100524.44;5257754;28;20025;-65
2021/06/21 05:46:52;;;;;;;4.75;3.25;;;;;;;14.66;100.00;100526.25;5255097;28;20021;-64
2021/06/21 05:49:24;;;;;;;4.70;3.20;;;;;;;14.63;100.00;100523.94;5252446;28;20033;-65
2021/06/21 05:51:57;;;;;;;4.97;3.53;;;;;;;14.65;100.00;100519.31;5254803;28;20021;-65
2021/06/21 05:54:28;;;;;;;4.10;3.08;;;;;;;14.66;100.00;100535.94;5256559;28;20029;-65
2021/06/21 05:56:59;;;;;;;4.32;2.97;;;;;;;14.64;100.00;100530.84;5255547;28;20040;-65
2021/06/21 05:59:31;;;;;;;3.45;2.78;;;;;;;14.53;100.00;100536.44;5252891;28;20029;-65
2021/06/21 06:02:04;;;;;;;3.30;2.58;;;;;;;14.57;100.00;100538.56;5240349;28;20072;-66
2021/06/21 06:04:35;;;;;;;2.92;2.63;;;;;;;14.59;100.00;100533.16;5250254;28;20033;-67
2021/06/21 06:07:07;;;;;;;2.63;2.30;;;;;;;14.59;100.00;100522.63;5255795;28;20412;-66
2021/06/21 06:09:38;;;;;;;3.55;2.50;;;;;;;14.57;100.00;100529.84;5253182;28;20040;-66
2021/06/21 06:12:10;;;;;;;3.20;2.13;;;;;;;14.56;100.00;100536.13;5255149;28;20123;-67
2021/06/21 06:14:41;;;;;;;2.80;2.03;;;;;;;14.53;100.00;100533.81;5251215;28;20029;-65
2021/06/21 06:17:13;;;;;;;2.53;2.15;;;;;;;14.55;100.00;100535.28;5253536;28;20278;-66
2021/06/21 06:19:44;;;;;;;2.70;2.08;;;;;;;14.64;100.00;100538.75;5254095;28;20021;-66
2021/06/21 06:22:16;;;;;;;3.70;2.40;;;;;;;14.65;100.00;100550.94;5246061;28;20285;-66
2021/06/21 06:24:47;;;;;;;3.38;2.83;;;;;;;14.68;100.00;100552.44;5252032;28;20029;-66
2021/06/21 06:27:19;;;;;;;4.05;3.08;;;;;;;14.66;100.00;100554.41;5252266;28;20021;-66
2021/06/21 06:29:50;;;;;;;3.40;2.88;;;;;;;14.65;100.00;100560.66;5250294;28;20119;-66
2021/06/21 06:32:21;;;;;;;4.55;3.10;;;;;;;14.61;100.00;100565.44;5251835;28;20494;-66
2021/06/21 06:34:52;;;;;;;3.80;2.97;;;;;;;14.62;100.00;100561.81;5257337;28;21487;-67
2021/06/21 06:37:24;;;;;;;3.13;2.75;;;;;;;14.64;100.00;100566.94;5254819;28;20047;-66
2021/06/21 06:39:56;;;;;;;3.03;2.63;;;;;;;14.63;100.00;100574.03;5254251;28;20543;-66
2021/06/21 06:42:28;;;;;;;4.72;3.28;;;;;;;14.64;100.00;100567.75;5254945;28;20032;-66
2021/06/21 06:44:59;;;;;;;2.63;2.42;;;;;;;14.59;100.00;100581.44;5255282;28;20616;-66
2021/06/21 06:47:32;;;;;;;4.15;2.75;;;;;;;14.62;100.00;100588.16;5251459;28;20021;-66
2021/06/21 06:50:04;;;;;;;3.92;3.10;;;;;;;14.58;100.00;100586.84;5253914;28;20029;-66
2021/06/21 06:52:37;;;;;;;3.40;2.65;;;;;;;14.59;100.00;100585.88;5253326;28;20038;-67
2021/06/21 06:57:59;;;;;;;4.88;3.08;;;;;;;14.49;100.00;100598.34;5249228;28;20037;-66
2021/06/21 07:00:33;;;;;;;3.13;2.83;;;;;;;14.49;100.00;100604.47;5243927;28;20029;-66
2021/06/21 07:03:08;;;;;;;3.92;2.97;;;;;;;14.57;100.00;100611.56;5252879;28;20029;-66
2021/06/21 07:05:42;;;;;;;6.07;2.80;;;;;;;14.54;100.00;100617.16;5253158;28;20079;-66
2021/06/21 07:08:13;;;;;;;3.95;3.08;;;;;;;14.47;100.00;100616.13;5252452;28;20033;-66
2021/06/21 07:10:44;;;;;;;3.20;2.70;;;;;;;14.57;100.00;100628.22;5247900;28;20036;-66
2021/06/21 07:13:16;;;;;;;4.18;2.78;;;;;;;14.51;100.00;100623.59;5253586;28;20485;-66
2021/06/21 07:15:48;;;;;;;3.45;2.83;;;;;;;14.48;100.00;100625.69;5254620;28;20051;-66
2021/06/21 07:18:20;;;;;;;3.40;3.10;;;;;;;14.57;100.00;100622.94;5253710;28;20428;-66
2021/06/21 07:20:51;;;;;;;3.63;2.88;;;;;;;14.47;100.00;100631.94;5251558;28;20048;-66
2021/06/21 07:23:22;;;;;;;5.53;2.95;;;;;;;14.52;100.00;100621.78;5252496;28;20032;-66
2021/06/21 07:25:54;;;;;;;3.22;2.60;;;;;;;14.52;100.00;100627.88;5253313;28;20103;-66
2021/06/21 07:28:25;;;;;;;3.78;3.17;;;;;;;14.59;100.00;100622.78;5252703;28;20411;-66
2021/06/21 07:30:56;;;;;;;4.75;3.30;;;;;;;14.59;100.00;100630.72;5252653;28;20029;-66
2021/06/21 07:33:28;;;;;;;4.30;3.40;;;;;;;14.69;100.00;100641.91;5252455;28;20029;-66
2021/06/21 07:35:59;;;;;;;3.65;3.33;;;;;;;14.69;100.00;100639.28;5251630;28;20029;-66
2021/06/21 07:38:30;;;;;;;4.38;3.97;;;;;;;14.65;100.00;100640.59;5254034;28;20397;-66
2021/06/21 07:41:03;;;;;;;4.55;3.40;;;;;;;14.67;100.00;100648.34;5251317;28;20028;-66
2021/06/21 07:43:35;;;;;;;4.20;3.53;;;;;;;14.67;100.00;100654.44;5249161;28;20039;-66
2021/06/21 07:46:06;;;;;;;4.93;3.45;;;;;;;14.55;100.00;100647.84;5251445;28;20032;-66
2021/06/21 07:48:40;;;;;;;3.20;2.90;;;;;;;14.58;100.00;100655.41;5250601;28;20124;-66
2021/06/21 07:51:14;;;;;;;4.13;3.28;;;;;;;14.59;100.00;100657.88;5253312;28;20044;-66
2021/06/21 07:53:47;;;;;;;3.80;3.50;;;;;;;14.50;100.00;100669.38;5247962;28;20067;-66
2021/06/21 07:56:19;;;;;;;;;;;;;;;14.79;100.00;100684.78;5253487;28;20805;-66
2021/06/21 07:58:50;;;;;;;6.35;3.70;;;;;;;14.50;100.00;100682.56;5252969;28;19943;-66
2021/06/21 08:01:23;;;;;;;3.38;3.08;;;;;;;14.55;100.00;100685.56;5255447;28;20047;-66
2021/06/21 08:03:56;;;;;;;3.20;2.40;;;;;;;14.49;100.00;100688.81;5256531;28;20025;-66
2021/06/21 08:06:28;;;;;;;3.38;2.50;;;;;;;14.44;100.00;100691.09;5254905;28;20029;-66
2021/06/21 08:08:59;;;;;;;3.72;2.97;;;;;;;14.49;100.00;100698.50;5256119;28;20020;-66
2021/06/21 08:11:30;;;;;;;3.75;2.78;;;;;;;14.43;100.00;100699.97;5253163;28;20037;-66
2021/06/21 08:14:02;;;;;;;4.00;2.72;;;;;;;14.49;100.00;100709.91;5251150;28;20094;-66
2021/06/21 08:16:33;;;;;;;3.50;2.58;;;;;;;14.48;100.00;100713.50;5253746;28;20024;-65
2021/06/21 08:19:04;;;;;;;4.22;2.53;;;;;;;14.53;100.00;100721.78;5253871;28;20119;-65
2021/06/21 08:21:36;;;;;;;3.13;2.47;;;;;;;14.54;100.00;100717.34;5252793;28;20063;-65
2021/06/21 08:24:10;;;;;;;2.58;2.38;;;;;;;14.53;100.00;100713.06;5253463;28;20034;-65
2021/06/21 08:26:42;;;;;;;3.30;1.80;;;;;;;14.55;100.00;100721.66;5251616;28;20520;-65
2021/06/21 08:29:13;;;;;;;2.40;2.00;;;;;;;14.60;100.00;100727.25;5255499;28;20039;-65
2021/06/21 08:31:45;;;;;;;2.15;1.75;;;;;;;14.63;100.00;100719.03;5256399;28;20043;-65
2021/06/21 08:34:16;;;;;;;2.90;2.17;;;;;;;14.70;100.00;100721.84;5254869;28;20407;-65
2021/06/21 08:36:47;;;;;;;4.13;1.90;;;;;;;14.74;100.00;100720.56;5256939;28;20020;-65
2021/06/21 08:39:19;;;;;;;2.60;1.83;;;;;;;14.77;100.00;100722.84;5257314;28;20086;-64
2021/06/21 08:41:50;;;;;;;2.78;1.98;;;;;;;14.91;100.00;100729.34;5254974;28;20028;-65
2021/06/21 08:44:21;;;;;;;4.60;2.30;;;;;;;14.96;100.00;100724.38;5253867;28;20090;-65
2021/06/21 08:46:53;;;;;;;2.85;1.70;;;;;;;14.90;100.00;100736.44;5253635;28;20479;-65
2021/06/21 08:49:26;;;;;;;2.25;1.90;;;;;;;14.85;100.00;100733.44;5256024;28;20028;-66
2021/06/21 08:51:57;;;;;;;3.38;2.00;;;;;;;14.98;100.00;100732.97;5255550;28;20033;-65
2021/06/21 08:54:29;;;;;;;2.47;1.90;;;;;;;14.94;100.00;100745.66;5252322;28;20039;-66
2021/06/21 08:57:03;;;;;;;2.60;2.33;;;;;;;14.96;100.00;100748.94;5254152;28;20021;-66
2021/06/21 08:59:37;;;;;;;2.42;1.90;;;;;;;14.88;100.00;100743.66;5255169;28;20031;-66
2021/06/21 09:02:13;;;;;;;2.70;2.30;;;;;;;15.00;100.00;100754.72;5253579;28;20029;-66
2021/06/21 09:04:44;;;;;;;2.40;1.95;;;;;;;15.01;100.00;100754.59;5250845;28;20029;-66
2021/06/21 09:07:21;;;;;;;2.75;2.00;;;;;;;15.16;100.00;100732.84;5248569;28;20028;-66
2021/06/21 09:09:55;;;;;;;2.78;1.98;;;;;;;15.12;100.00;100705.97;5250899;28;20497;-66
2021/06/21 09:12:29;;;;;;;3.08;2.63;;;;;;;15.13;100.00;100694.41;5252058;28;20024;-65
2021/06/21 09:15:08;;;;;;;2.60;2.00;;;;;;;15.11;100.00;100671.81;5253634;28;20025;-65
2021/06/21 09:17:39;;;;;;;2.42;1.80;;;;;;;15.03;100.00;100677.91;5252223;28;20075;-67
2021/06/21 09:20:11;;;;;;;2.05;1.70;;;;;;;14.91;100.00;100671.31;5252662;28;20025;-65
2021/06/21 09:22:51;;;;;;;2.60;2.00;;;;;;;15.04;100.00;100682.22;5252231;28;20027;-66
2021/06/21 09:25:25;;;;;;;1.77;1.50;;;;;;;14.93;100.00;100677.25;5251412;28;20618;-66
2021/06/21 09:28:01;;;;;;;3.65;2.10;;;;;;;14.89;100.00;100665.34;5243249;28;20179;-66
2021/06/21 09:30:48;;;;;;;3.65;1.70;;;;;;;14.98;100.00;100652.03;5254478;28;20025;-66
2021/06/21 09:33:29;;;;;;;3.30;2.00;;;;;;;14.89;100.00;100657.44;5254940;28;20036;-66
2021/06/21 09:36:01;;;;;;;4.68;1.77;;;;;;;14.77;100.00;100678.88;5254957;28;20103;-66
2021/06/21 09:38:32;;;;;;;2.83;2.30;;;;;;;14.75;100.00;100701.94;5250862;28;20031;-66
2021/06/21 09:41:04;;;;;;;6.10;2.15;;;;;;;14.80;100.00;100704.91;5254594;28;20543;-66
2021/06/21 09:43:36;;;;;;;3.33;2.15;;;;;;;14.84;100.00;100718.59;5256231;28;20140;-66
2021/06/21 09:46:18;;;;;;;3.42;2.60;;;;;;;14.95;100.00;100735.94;5256084;28;20029;-66
2021/06/21 09:48:52;;;;;;;3.28;2.70;;;;;;;14.96;100.00;100738.41;5252875;28;20029;-66
2021/06/21 09:51:37;;;;;;;2.88;2.58;;;;;;;15.05;100.00;100749.81;5254203;28;20458;-66
2021/06/21 09:54:11;;;;;;;3.92;2.60;;;;;;;15.07;100.00;100761.03;5253573;28;20506;-66
2021/06/21 09:56:51;;;;;;;3.70;2.95;;;;;;;15.13;100.00;100764.84;5253077;28;20135;-66
2021/06/21 09:59:22;;;;;;;3.05;2.53;;;;;;;15.18;100.00;100776.56;5256097;28;20506;-66
2021/06/21 10:02:16;;;;;;;5.55;3.33;;;;;;;15.42;100.00;100780.22;5255843;28;20029;-66
2021/06/21 10:04:47;;;;;;;3.58;3.03;;;;;;;15.39;100.00;100778.75;5252809;28;20031;-66
2021/06/21 10:07:28;;;;;;;3.55;3.15;;;;;;;15.54;100.00;100797.41;5251680;28;20552;-66
2021/06/21 10:10:05;;;;;;;3.67;3.20;;;;;;;15.73;100.00;100799.78;5254386;28;20096;-66
2021/06/21 10:12:38;;;;;;;3.65;3.33;;;;;;;15.87;100.00;100808.00;5254716;28;20482;-66
2021/06/21 10:15:11;;;;;;;3.88;3.45;;;;;;;16.05;100.00;100808.66;5253507;28;20028;-66
2021/06/21 10:17:43;;;;;;;3.70;3.28;;;;;;;16.12;100.00;100801.72;5252156;28;20032;-66
2021/06/21 10:20:14;;;;;;;3.42;3.10;;;;;;;16.34;100.00;100813.41;5252457;28;20119;-67
2021/06/21 10:22:46;;;;;;;3.53;3.20;;;;;;;16.51;100.00;100803.63;5251668;28;20108;-66
2021/06/21 10:25:18;;;;;;;3.42;2.72;;;;;;;16.62;100.00;100789.22;5251797;28;20069;-66
2021/06/21 10:27:50;;;;;;;3.40;3.10;;;;;;;16.65;100.00;100805.56;5252935;28;20029;-66
2021/06/21 10:30:21;;;;;;;3.10;2.80;;;;;;;16.65;99.81;100817.97;5254668;28;20024;-66
2021/06/21 10:32:53;;;;;;;5.05;3.17;;;;;;;16.58;100.00;100812.53;5252843;28;20025;-66
2021/06/21 10:35:30;;;;;;;5.07;2.80;;;;;;;16.75;100.00;100811.53;5252053;28;20021;-67
2021/06/21 10:38:05;;;;;;;3.13;2.83;;;;;;;16.74;98.36;100817.81;5252514;28;20033;-66
2021/06/21 10:40:59;;;;;;;4.43;2.88;;;;;;;16.88;100.00;100815.44;5242369;28;20332;-66
2021/06/21 10:43:53;;;;;;;3.08;2.55;;;;;;;16.81;99.05;100819.75;5252952;28;20075;-66
2021/06/21 10:46:29;;;;;;;3.17;2.80;;;;;;;16.78;98.79;100818.28;5250441;28;20043;-66
2021/06/21 10:49:01;;;;;;;3.20;2.90;;;;;;;16.77;99.83;100817.44;5252185;28;20024;-67
2021/06/21 10:51:41;;;;;;;3.00;2.70;;;;;;;16.78;98.90;100821.75;5250769;28;20037;-66
2021/06/21 10:54:24;;;;;;;3.10;2.80;;;;;;;16.78;99.68;100827.06;5249272;28;20029;-66
2021/06/21 10:56:58;;;;;;;3.17;2.55;;;;;;;16.70;96.33;100824.38;5249663;28;20032;-66
2021/06/21 10:59:29;;;;;;;2.67;2.42;;;;;;;16.67;98.35;100839.78;5248107;28;20048;-66
2021/06/21 11:02:00;;;;;;;2.88;2.58;;;;;;;16.70;98.46;100842.91;5249394;28;20156;-67
2021/06/21 11:04:35;;;;;;;3.58;2.47;;;;;;;16.82;100.00;100847.84;5245939;28;20044;-67
2021/06/21 11:07:15;;;;;;;3.13;2.83;;;;;;;16.89;97.22;100839.06;5251214;28;20028;-66
2021/06/21 11:09:49;;;;;;;3.33;2.65;;;;;;;16.96;97.35;100845.31;5244686;28;20025;-66
2021/06/21 11:12:20;;;;;;;2.90;2.65;;;;;;;17.01;97.27;100852.78;5250535;28;20040;-66
2021/06/21 11:15:05;;;;;;;2.67;2.40;;;;;;;17.26;97.14;100856.94;5251206;28;20029;-67
2021/06/21 11:17:42;;;;;;;4.10;2.70;;;;;;;17.60;100.00;100860.22;5251796;28;20290;-67
2021/06/21 11:20:33;;;;;;;4.03;2.95;;;;;;;17.56;94.40;100865.03;5252129;28;20520;-67
2021/06/21 11:23:07;;;;;;;3.05;2.65;;;;;;;17.32;93.36;100873.16;5251155;28;20108;-67
2021/06/21 11:25:50;;;;;;;3.40;3.10;;;;;;;17.55;97.61;100881.13;5249473;28;20115;-67
2021/06/21 11:28:36;;;;;;;3.30;2.97;;;;;;;17.55;94.07;100895.19;5250413;28;20118;-67
2021/06/21 11:31:29;;;;;;;4.13;3.22;;;;;;;17.59;94.01;100909.75;5250433;28;20040;-67
2021/06/21 11:34:06;;;;;;;4.47;4.07;;;;;;;17.35;93.46;100905.41;5249954;28;20017;-67
2021/06/21 11:36:48;;;;;;;4.13;3.72;;;;;;;17.38;94.43;100914.81;5247596;28;20033;-67
2021/06/21 11:39:25;;;;;;;3.50;2.95;;;;;;;17.35;93.38;100917.78;5251499;28;20028;-67
2021/06/21 11:42:05;;;;;;;2.85;2.60;;;;;;;17.49;92.52;100932.97;5251964;28;20025;-67
2021/06/21 11:44:39;;;;;;;4.88;3.30;;;;;;;17.45;93.89;100924.53;5250100;28;20028;-67
2021/06/21 11:47:14;;;;;;;4.13;3.72;;;;;;;17.58;96.79;100931.94;5249978;28;20032;-67
2021/06/21 11:49:47;;;;;;;3.95;3.47;;;;;;;17.45;95.55;100929.84;5245796;28;20513;-67
2021/06/21 11:52:24;;;;;;;3.40;3.10;;;;;;;17.35;92.42;100928.38;5251495;28;20067;-68